Home > Products > Valid Products > MTR

000
SAUS43 KDDC 221203
MTRP28
METAR KP28 221156Z AUTO 00000KT 12/07 A3031 RMK AO1 SLP256 T01170072
10172 20106 53011





000
SAUS43 KDDC 221103
MTRP28
METAR KP28 221056Z AUTO 25003KT 11/07 A3030 RMK AO1 SLP251 T01060072





000
SAUS43 KDDC 221003
MTRP28
METAR KP28 220956Z AUTO 06004KT 12/07 A3028 RMK AO1 SLP245 T01220067





000
SAUS43 KDDC 220903
MTRP28
METAR KP28 220856Z AUTO 04004KT 12/07 A3028 RMK AO1 SLP241 T01220067
51005





000
SAUS43 KDDC 220803
MTRP28
METAR KP28 220756Z AUTO 07004KT 15/06 A3027 RMK AO1 SLP238 T01500061





000
SAUS43 KDDC 220703
MTRP28
METAR KP28 220656Z AUTO 08005KT 17/06 A3027 RMK AO1 SLP236 T01720061





000
SAUS43 KDDC 220603
MTRP28
METAR KP28 220556Z AUTO 06006KT 16/06 A3026 RMK AO1 SLP235 T01610061
10256 20156 403000156 50003





000
SAUS43 KDDC 220503
MTRP28
METAR KP28 220456Z AUTO 07004KT 17/06 A3026 RMK AO1 SLP235 T01670056





000
SAUS43 KDDC 220403
MTRP28
METAR KP28 220356Z AUTO 00000KT 18/06 A3026 RMK AO1 SLP235 T01780061





000
SAUS43 KDDC 220303
MTRP28
METAR KP28 220256Z AUTO 08007KT 19/06 A3025 RMK AO1 SLP232 T01940056
53021





000
SAUS43 KDDC 220203
MTRP28
METAR KP28 220156Z AUTO 06006KT 21/06 A3023 RMK AO1 SLP224 T02060061





000
SAUS43 KDDC 220103
MTRP28
METAR KP28 220056Z AUTO 05008KT 23/06 A3021 RMK AO1 SLP217 T02280061





000
SAUS43 KDDC 220003
MTRP28
METAR KP28 212356Z AUTO 05011KT 26/06 A3019 RMK AO1 SLP209 T02560061
10300 20256 53004





000
SAUS43 KDDC 212303
MTRP28
METAR KP28 212256Z AUTO 05013KT 28/06 A3018 RMK AO1 SLP204 T02780061





000
SAUS43 KDDC 212203
MTRP28
METAR KP28 212156Z AUTO 03008G16KT 29/06 A3017 RMK AO1 SLP202
T02890061





000
SAUS43 KDDC 212103
MTRP28
METAR KP28 212056Z AUTO 06012G18KT 29/04 A3017 RMK AO1 SLP202
T02940044 56015





000
SAUS43 KDDC 212003
MTRP28
METAR KP28 211956Z AUTO 01008KT 29/06 A3019 RMK AO1 SLP205 T02940056





000
SAUS43 KDDC 211903
MTRP28
METAR KP28 211856Z AUTO 04012G19KT 29/06 A3020 RMK AO1 SLP210
T02940061





000
SAUS43 KDDC 211803
MTRP28
METAR KP28 211756Z AUTO 04013G22KT 28/05 A3022 RMK AO1 SLP218
T02780050 10289 20206 50003





000
SAUS43 KDDC 211703
MTRP28
METAR KP28 211656Z AUTO 04012KT 28/05 A3023 RMK AO1 SLP220 T02780050





000
SAUS43 KDDC 211603
MTRP28
METAR KP28 211556Z AUTO 06013G21KT 27/06 A3023 RMK AO1 SLP218
T02670056





000
SAUS43 KDDC 211503
MTRP28
METAR KP28 211456Z AUTO 05012KT 25/08 A3021 RMK AO1 SLP213 T02500083
51028





000
SAUS43 KDDC 211403
MTRP28
METAR KP28 211356Z AUTO 05013G18KT 22/10 A3020 RMK AO1 SLP210
T02170100





000
SAUS43 KDDC 211303
MTRP28
METAR KP28 211256Z AUTO 05012KT 21/11 A3016 RMK AO1 PK WND
05028/1203 SLP198 T02060106





000
SAUS43 KDDC 211203
MTRP28
METAR KP28 211156Z AUTO 05015G24KT 21/13 A3012 RMK AO1 SLP183
T02110133 10244 20211 53019





000
SAUS43 KDDC 211103
MTRP28
METAR KP28 211056Z AUTO 03013G23KT 22/18 A3010 RMK AO1 SLP176
T02220183





000
SAUS43 KDDC 211003
MTRP28
METAR KP28 210956Z AUTO 35007KT 22/18 A3008 RMK AO1 SLP168 T02170183





000
SAUS43 KDDC 210903
MTRP28
METAR KP28 210856Z AUTO 02004KT 22/18 A3006 RMK AO1 SLP163 T02170178
51009





000
SAUS43 KDDC 210803
MTRP28
METAR KP28 210756Z AUTO 09007KT 23/18 A3006 RMK AO1 SLP163 T02330178





000
SAUS43 KDDC 210703
MTRP28
METAR KP28 210656Z AUTO 06006KT 24/18 A3006 RMK AO1 SLP161 T02440178





000
SAUS43 KDDC 210603
MTRP28
METAR KP28 210556Z AUTO 04006KT 23/17 A3004 RMK AO1 SLP153 T02330172
10317 20233 403330172 53008





000
SAUS43 KDDC 210503
MTRP28
METAR KP28 210456Z AUTO 35005KT 24/18 A3002 RMK AO1 SLP148 T02390178





000
SAUS43 KDDC 210403
MTRP28
METAR KP28 210356Z AUTO 22005KT 26/17 A3001 RMK AO1 SLP144 T02610172





000
SAUS43 KDDC 210403
MTRP28
METAR KP28 210356Z AUTO 22005KT 26/17 A3001 RMK AO1 SLP144 T02610172





000
SAUS43 KDDC 210303
MTRP28
METAR KP28 210256Z AUTO 16005KT 28/17 A3001 RMK AO1 SLP145 T02830172
53025





000
SAUS43 KDDC 210203
MTRP28
METAR KP28 210156Z AUTO 14006KT 28/16 A2998 RMK AO1 SLP136 T02830161





000
SAUS43 KDDC 210103
MTRP28
METAR KP28 210056Z AUTO 15005KT 30/16 A2995 RMK AO1 SLP128 T03000156





000
SAUS43 KDDC 210003
MTRP28
METAR KP28 202356Z AUTO 18007KT 32/16 A2993 RMK AO1 SLP120 T03170156
10333 20300 56007





000
SAUS43 KDDC 202303
MTRP28
METAR KP28 202256Z AUTO 19008KT 33/16 A2994 RMK AO1 SLP121 T03280156





000
SAUS43 KDDC 202203
MTRP28
METAR KP28 202156Z AUTO 23007KT 32/16 A2994 RMK AO1 SLP122 T03220156





000
SAUS43 KDDC 202103
MTRP28
METAR KP28 202056Z AUTO 21012G16KT 32/16 A2996 RMK AO1 SLP126
T03220161 56011





000
SAUS43 KDDC 202003
MTRP28
METAR KP28 201956Z AUTO 20011G17KT 110V220 32/17 A2996 RMK AO1
SLP127 T03170167





000
SAUS43 KDDC 201903
MTRP28
METAR KP28 201856Z AUTO 19013G18KT 32/17 A2997 RMK AO1 SLP131
T03170172





000
SAUS43 KDDC 201803
MTRP28
METAR KP28 201756Z AUTO 18011G15KT 30/18 A2999 RMK AO1 SLP138
T03000183 10300 20183 58006





000
SAUS43 KDDC 201703
MTRP28
METAR KP28 201656Z AUTO 18006KT 29/19 A3001 RMK AO1 SLP145 T02890189





000
SAUS43 KDDC 201603
MTRP28
METAR KP28 201556Z AUTO 21008KT 170V230 27/19 A3001 RMK AO1 SLP147
T02670189





000
SAUS43 KDDC 201503
MTRP28
METAR KP28 201456Z AUTO 19009KT 24/19 A3001 RMK AO1 SLP146 T02440189
53011





000
SAUS43 KDDC 201403
MTRP28
METAR KP28 201356Z AUTO 17007KT 21/19 A2999 RMK AO1 SLP142 T02110189





000
SAUS43 KDDC 201303
MTRP28
METAR KP28 201256Z AUTO 00000KT 18/17 A2998 RMK AO1 SLP139 T01830172





000
SAUS43 KDDC 201203
MTRP28
METAR KP28 201156Z AUTO 15004KT 19/17 A2998 RMK AO1 SLP134 T01890172
10217 20172 53001





000
SAUS43 KDDC 201103
MTRP28
METAR KP28 201056Z AUTO 00000KT 17/16 A2997 RMK AO1 SLP135 T01720161





000
SAUS43 KDDC 201003
MTRP28
METAR KP28 200956Z AUTO 14005KT 19/17 A2996 RMK AO1 SLP131 T01940172





000
SAUS43 KDDC 200903
MTRP28
METAR KP28 200856Z AUTO 15004KT 20/17 A2997 RMK AO1 SLP132 T02000172
50001





000
SAUS43 KDDC 200803
MTRP28
METAR KP28 200756Z AUTO 15003KT 21/17 A2998 RMK AO1 SLP135 T02060172





000
SAUS43 KDDC 200703
MTRP28
METAR KP28 200656Z AUTO 14003KT 21/17 A2998 RMK AO1 SLP134 T02110172





000
SAUS43 KDDC 200603
MTRP28
METAR KP28 200556Z AUTO 17005KT 22/17 A2997 RMK AO1 SLP132 T02170167
10306 20217 403220172 51010





000
SAUS43 KDDC 200503
MTRP28
METAR KP28 200456Z AUTO 16006KT 23/17 A2996 RMK AO1 SLP129 T02330167





000
SAUS43 KDDC 200403
MTRP28
METAR KP28 200356Z AUTO 17008KT 24/17 A2995 RMK AO1 SLP126 T02390167





000
SAUS43 KDDC 200303
MTRP28
METAR KP28 200256Z AUTO 17008KT 26/17 A2994 RMK AO1 SLP122 T02560167
53015





000
SAUS43 KDDC 200203
MTRP28
METAR KP28 200156Z AUTO 16006KT 27/16 A2992 RMK AO1 SLP117 T02670161





000
SAUS43 KDDC 200103
MTRP28
METAR KP28 200056Z AUTO 16004KT 28/16 A2990 RMK AO1 SLP112 T02780161





000
SAUS43 KDDC 200003
MTRP28
METAR KP28 192356Z AUTO 17010G17KT 31/16 A2989 RMK AO1 SLP106
T03060156 10322 20294 56007





000
SAUS43 KDDC 192303
MTRP28
METAR KP28 192256Z AUTO 16010G20KT 32/16 A2989 RMK AO1 SLP107
T03170156





000
SAUS43 KDDC 192203
MTRP28
METAR KP28 192156Z AUTO 19011G21KT 32/16 A2990 RMK AO1 SLP107
T03170161





000
SAUS43 KDDC 192103
MTRP28
METAR KP28 192056Z AUTO 21012G20KT 32/16 A2991 RMK AO1 SLP112
T03220161 58019





000
SAUS43 KDDC 192003
MTRP28
METAR KP28 191956Z AUTO 20012G17KT 32/17 A2993 RMK AO1 SLP118
T03170172





000
SAUS43 KDDC 191903
MTRP28
METAR KP28 191856Z AUTO 19014G20KT 31/18 A2995 RMK AO1 SLP127
T03060178





000
SAUS43 KDDC 191803
MTRP28
METAR KP28 191756Z AUTO 19011KT 29/18 A2997 RMK AO1 SLP133 T02940183
10300 20172 58006





000
SAUS43 KDDC 191703
MTRP28
METAR KP28 191656Z AUTO 20010G18KT 28/19 A2998 RMK AO1 SLP136
T02830189





000
SAUS43 KDDC 191603
MTRP28
METAR KP28 191556Z AUTO 21008KT 170V240 26/19 A2999 RMK AO1 SLP139
T02610194





000
SAUS43 KDDC 191503
MTRP28
METAR KP28 191456Z AUTO VRB04KT 23/19 A2999 RMK AO1 SLP141 T02280189
51005





000
SAUS43 KDDC 191403
MTRP28
METAR KP28 191356Z AUTO 19004KT 20/18 A2999 RMK AO1 SLP140 T02000183





000
SAUS43 KDDC 191303
MTRP28
METAR KP28 191256Z AUTO 00000KT 17/17 A2999 RMK AO1 SLP141 T01720167





    US Dept of Commerce
    National Oceanic and Atmospheric Administration
    National Weather Service
    1325 East West Highway
    Silver Spring, MD 20910
    Page Author: NWS Internet Services Team
Disclaimer
Information Quality
Credits
Glossary
Privacy Policy
Freedom of Information Act (FOIA)
About Us
Career Opportunities